Time;durP1;ratioP1;P1;durP2;ratioP2;P2;SDS_P1;SDS_P2;PMS_P1;PMS_P2;Temp;Humidity;BMP_temperature;BMP_pressure;BME280_temperature;BME280_humidity;BME280_pressure;Samples;Min_cycle;Max_cycle;Signal;HPM_P1;HPM_P2
2023/05/15 00:02:17;;;;;;;6.40;5.80;;;19.20;76.60;;;;;;4955917;28;20454;-45
2023/05/15 00:04:46;;;;;;;6.63;6.03;;;19.20;76.80;;;;;;4954052;28;20470;-46
2023/05/15 00:07:14;;;;;;;7.80;6.90;;;19.20;76.80;;;;;;4959215;28;20527;-50
2023/05/15 00:09:43;;;;;;;7.03;6.53;;;19.20;76.80;;;;;;4969742;28;20487;-46
2023/05/15 00:12:11;;;;;;;7.10;6.50;;;19.20;76.90;;;;;;4964682;28;20581;-44
2023/05/15 00:14:40;;;;;;;7.00;6.40;;;19.20;77.00;;;;;;4960122;28;20557;-45
2023/05/15 00:17:11;;;;;;;7.20;6.60;;;19.20;77.00;;;;;;4975676;28;20467;-47
2023/05/15 00:19:40;;;;;;;7.27;6.63;;;19.10;76.90;;;;;;4977631;28;20435;-45
2023/05/15 00:22:08;;;;;;;7.33;6.63;;;19.20;77.10;;;;;;4978009;28;20575;-49
2023/05/15 00:24:37;;;;;;;8.73;7.83;;;19.20;77.30;;;;;;4958434;28;20440;-46
2023/05/15 00:27:06;;;;;;;6.20;5.70;;;19.10;77.20;;;;;;4955971;28;20466;-46
2023/05/15 00:29:34;;;;;;;7.07;6.47;;;19.20;77.30;;;;;;4957238;28;21016;-47
2023/05/15 00:32:03;;;;;;;8.30;7.60;;;19.20;77.40;;;;;;4958028;28;20498;-50
2023/05/15 00:34:33;;;;;;;7.50;6.80;;;19.20;77.50;;;;;;4955803;28;20440;-45
2023/05/15 00:37:02;;;;;;;8.60;7.37;;;19.20;77.50;;;;;;4938616;29;20851;-46
2023/05/15 00:39:32;;;;;;;7.83;7.03;;;19.10;77.60;;;;;;4969428;28;20452;-44
2023/05/15 00:42:02;;;;;;;8.87;7.90;;;19.20;77.80;;;;;;4960984;28;20471;-47
2023/05/15 00:44:32;;;;;;;11.13;8.70;;;19.10;77.80;;;;;;4948656;28;20859;-47
2023/05/15 00:47:02;;;;;;;8.50;7.70;;;19.10;77.80;;;;;;4969680;28;20474;-46
2023/05/15 00:49:34;;;;;;;9.50;8.60;;;19.20;77.90;;;;;;4966907;28;20472;-46
2023/05/15 00:52:07;;;;;;;11.03;9.73;;;19.10;77.90;;;;;;4953406;28;20467;-50
2023/05/15 00:54:35;;;;;;;10.27;9.43;;;19.10;78.00;;;;;;4955988;28;20467;-46
2023/05/15 00:57:06;;;;;;;9.30;8.50;;;19.10;78.10;;;;;;4951892;28;20471;-46
2023/05/15 00:59:38;;;;;;;14.43;10.00;;;19.10;78.00;;;;;;4956667;28;20480;-45
2023/05/15 01:02:07;;;;;;;9.43;8.70;;;19.10;79.30;;;;;;4955896;28;20832;-48
2023/05/15 01:04:37;;;;;;;8.80;8.10;;;19.10;78.00;;;;;;4953069;29;20435;-46
2023/05/15 01:07:05;;;;;;;10.03;8.53;;;19.10;78.00;;;;;;4954769;28;20472;-45
2023/05/15 01:09:36;;;;;;;10.20;9.30;;;19.10;78.00;;;;;;4952396;28;20455;-46
2023/05/15 01:12:07;;;;;;;10.77;9.67;;;19.10;78.10;;;;;;4954481;28;20440;-45
2023/05/15 01:14:36;;;;;;;9.37;8.57;;;19.10;78.10;;;;;;4957237;28;21017;-46
2023/05/15 01:17:06;;;;;;;9.20;8.37;;;19.10;78.20;;;;;;4958679;28;20523;-46
2023/05/15 01:19:37;;;;;;;9.73;8.93;;;19.10;78.10;;;;;;4956999;28;20483;-46
2023/05/15 01:22:33;;;;;;;10.33;9.37;;;19.10;78.10;;;;;;4971436;28;20451;-46
2023/05/15 01:25:39;;;;;;;9.50;8.70;;;19.10;78.30;;;;;;4952036;29;20973;-45
2023/05/15 01:28:14;;;;;;;9.90;8.93;;;19.10;78.20;;;;;;4969570;28;20812;-46
2023/05/15 01:30:44;;;;;;;10.53;9.53;;;19.10;78.20;;;;;;4956141;28;20468;-50
2023/05/15 01:33:23;;;;;;;10.33;9.30;;;19.10;78.20;;;;;;4959470;28;20468;-45
2023/05/15 01:35:59;;;;;;;9.07;8.27;;;19.10;78.20;;;;;;4950453;28;20456;-45
2023/05/15 01:38:34;;;;;;;10.13;9.20;;;19.10;78.20;;;;;;4953534;28;20922;-45
2023/05/15 01:41:21;;;;;;;8.80;8.10;;;19.10;78.20;;;;;;4949155;29;20432;-47
2023/05/15 01:43:57;;;;;;;8.80;7.90;;;19.10;78.20;;;;;;4966234;28;20842;-45
2023/05/15 01:46:27;;;;;;;9.27;8.20;;;19.10;78.10;;;;;;4960177;28;21004;-48
2023/05/15 01:49:01;;;;;;;10.70;8.90;;;19.10;78.20;;;;;;4957373;28;20432;-47
2023/05/15 01:51:31;;;;;;;9.13;8.37;;;19.10;78.30;;;;;;4949838;28;20551;-48
2023/05/15 01:54:00;;;;;;;9.13;8.33;;;19.10;78.20;;;;;;4953937;28;20451;-45
2023/05/15 01:56:29;;;;;;;9.00;8.30;;;19.10;78.10;;;;;;4952518;28;20460;-46
2023/05/15 01:59:00;;;;;;;8.87;8.07;;;19.10;78.30;;;;;;4951307;28;20452;-45
2023/05/15 02:01:31;;;;;;;8.70;7.90;;;19.10;78.20;;;;;;4956128;28;20437;-45
2023/05/15 02:04:01;;;;;;;8.00;7.30;;;19.10;78.20;;;;;;4955774;28;20448;-46
2023/05/15 02:06:33;;;;;;;10.17;9.33;;;19.10;78.30;;;;;;4949347;28;20531;-45
2023/05/15 02:09:03;;;;;;;11.37;10.37;;;19.10;78.30;;;;;;4967025;28;20451;-46
2023/05/15 02:11:32;;;;;;;9.90;9.00;;;19.10;78.20;;;;;;4951276;28;20505;-44
2023/05/15 02:14:02;;;;;;;10.27;9.27;;;19.10;78.30;;;;;;4967678;28;20965;-49
2023/05/15 02:16:31;;;;;;;8.93;8.13;;;19.10;78.40;;;;;;4969939;28;20459;-46
2023/05/15 02:19:01;;;;;;;10.37;9.37;;;19.10;78.40;;;;;;4987232;28;20530;-46
2023/05/15 02:21:29;;;;;;;10.77;9.67;;;19.10;78.30;;;;;;4968624;28;20451;-46
2023/05/15 02:23:58;;;;;;;11.43;10.43;;;19.00;78.30;;;;;;4978500;28;20447;-45
2023/05/15 02:26:34;;;;;;;8.70;7.90;;;19.00;78.20;;;;;;4984842;28;20471;-47
2023/05/15 02:29:13;;;;;;;11.10;9.90;;;19.10;78.40;;;;;;4970629;28;20968;-48
2023/05/15 02:31:51;;;;;;;10.43;9.43;;;19.00;78.40;;;;;;4967755;28;20506;-46
2023/05/15 02:34:31;;;;;;;10.40;9.50;;;19.00;78.20;;;;;;4994409;28;20465;-45
2023/05/15 02:37:01;;;;;;;10.60;9.60;;;19.00;78.30;;;;;;4965615;28;20902;-45
2023/05/15 02:39:31;;;;;;;10.87;9.90;;;19.00;78.30;;;;;;4972029;28;20542;-45
2023/05/15 02:42:01;;;;;;;10.27;9.33;;;19.00;78.40;;;;;;4965908;28;20450;-46
2023/05/15 02:44:31;;;;;;;9.80;8.87;;;19.00;78.40;;;;;;4986085;28;20677;-45
2023/05/15 02:47:01;;;;;;;9.70;8.70;;;19.00;78.40;;;;;;4974916;28;20470;-48
2023/05/15 02:49:29;;;;;;;10.80;9.70;;;19.00;78.40;;;;;;4987219;28;20451;-45
2023/05/15 02:51:58;;;;;;;8.17;7.40;;;19.00;78.40;;;;;;4965531;28;20594;-45
2023/05/15 02:54:27;;;;;;;10.97;9.97;;;19.00;78.40;;;;;;4970395;28;20439;-46
2023/05/15 02:56:55;;;;;;;11.13;10.13;;;19.00;78.30;;;;;;4970148;28;20900;-48
2023/05/15 02:59:24;;;;;;;13.00;11.70;;;19.00;78.40;;;;;;4956567;28;20482;-46
2023/05/15 03:01:54;;;;;;;11.00;9.67;;;19.00;78.30;;;;;;4972474;28;20450;-45
2023/05/15 03:04:23;;;;;;;13.03;11.87;;;19.00;78.30;;;;;;4986035;28;20440;-45
2023/05/15 03:06:52;;;;;;;11.00;9.97;;;19.00;78.30;;;;;;4971020;28;20486;-46
2023/05/15 03:09:20;;;;;;;11.17;10.17;;;19.00;78.40;;;;;;4972998;28;20889;-47
2023/05/15 03:11:49;;;;;;;11.50;10.33;;;19.00;78.30;;;;;;4969584;28;20467;-46
2023/05/15 03:14:17;;;;;;;11.70;10.60;;;19.00;78.30;;;;;;4968530;28;20971;-48
2023/05/15 03:16:46;;;;;;;11.97;10.67;;;18.90;78.30;;;;;;4970095;28;20507;-48
2023/05/15 03:19:16;;;;;;;10.40;9.40;;;19.00;78.30;;;;;;4976673;28;20817;-46
2023/05/15 03:21:45;;;;;;;19.40;13.37;;;19.00;78.40;;;;;;4969134;28;20462;-49
2023/05/15 03:24:13;;;;;;;12.07;10.90;;;18.90;78.10;;;;;;4976475;28;20458;-48
2023/05/15 03:26:43;;;;;;;11.20;10.13;;;18.90;78.10;;;;;;4975188;28;20467;-47
2023/05/15 03:29:13;;;;;;;11.90;10.77;;;18.90;78.10;;;;;;4973229;28;20972;-46
2023/05/15 03:31:44;;;;;;;10.93;9.93;;;18.90;78.20;;;;;;4966721;28;20473;-51
2023/05/15 03:34:14;;;;;;;9.87;8.87;;;18.90;78.30;;;;;;4972342;28;20462;-46
2023/05/15 03:36:43;;;;;;;11.90;10.63;;;18.90;78.10;;;;;;4951884;28;20921;-45
2023/05/15 03:39:11;;;;;;;11.90;10.73;;;18.90;78.20;;;;;;4969748;28;20475;-47
2023/05/15 03:41:40;;;;;;;13.10;11.80;;;18.90;78.10;;;;;;4967874;28;20471;-47
2023/05/15 03:44:08;;;;;;;10.20;9.20;;;18.90;78.10;;;;;;4972725;28;20455;-45
2023/05/15 03:46:37;;;;;;;13.43;12.10;;;18.90;78.10;;;;;;4969529;28;20554;-47
2023/05/15 03:49:05;;;;;;;14.83;13.30;;;18.90;77.90;;;;;;4972644;28;20444;-45
2023/05/15 03:51:36;;;;;;;13.07;11.77;;;18.90;77.90;;;;;;4972731;28;20467;-46
2023/05/15 03:54:05;;;;;;;16.20;14.47;;;18.90;78.00;;;;;;4972741;28;20450;-48
2023/05/15 03:56:33;;;;;;;11.70;10.50;;;18.90;77.80;;;;;;4969455;28;20467;-47
2023/05/15 03:59:02;;;;;;;11.20;10.07;;;18.90;77.80;;;;;;4987861;28;20462;-45
2023/05/15 04:01:31;;;;;;;14.20;11.40;;;18.90;78.10;;;;;;4981074;28;20520;-45
2023/05/15 04:03:59;;;;;;;10.07;9.20;;;18.90;77.80;;;;;;4975686;28;21014;-44
2023/05/15 04:06:28;;;;;;;13.43;12.03;;;18.90;78.00;;;;;;4973218;28;20467;-47
2023/05/15 04:08:57;;;;;;;12.83;11.73;;;18.90;78.10;;;;;;4968373;28;20446;-47
2023/05/15 04:11:29;;;;;;;11.40;10.40;;;18.90;77.90;;;;;;4973380;28;20471;-48
2023/05/15 04:13:57;;;;;;;9.57;8.63;;;18.90;78.20;;;;;;4965782;28;20463;-45
2023/05/15 04:16:26;;;;;;;11.73;10.73;;;18.90;79.40;;;;;;4981514;28;20462;-46
2023/05/15 04:18:54;;;;;;;12.87;11.50;;;18.90;77.90;;;;;;4967470;28;20502;-46
2023/05/15 04:21:23;;;;;;;11.10;10.00;;;18.90;79.20;;;;;;4985910;28;20448;-45
2023/05/15 04:23:51;;;;;;;11.20;10.00;;;18.90;78.10;;;;;;4971821;28;20991;-44
2023/05/15 04:26:21;;;;;;;12.20;10.93;;;18.90;78.00;;;;;;4973022;28;20451;-46
2023/05/15 04:28:49;;;;;;;10.53;9.57;;;18.90;78.20;;;;;;4968050;28;21043;-46
2023/05/15 04:31:31;;;;;;;13.73;11.40;;;18.90;78.30;;;;;;4983654;28;20495;-46
2023/05/15 04:34:00;;;;;;;14.67;13.00;;;18.90;78.10;;;;;;4970739;28;20427;-44
2023/05/15 04:36:28;;;;;;;14.20;12.70;;;18.90;78.00;;;;;;4961921;28;21015;-43
2023/05/15 04:38:56;;;;;;;11.97;10.87;;;18.90;77.80;;;;;;4968301;28;20455;-46
2023/05/15 04:41:26;;;;;;;11.50;10.50;;;18.90;78.10;;;;;;4981591;28;20562;-49
2023/05/15 04:43:55;;;;;;;12.70;11.40;;;18.80;77.90;;;;;;4976382;28;20529;-49
2023/05/15 04:46:23;;;;;;;11.80;10.60;;;18.90;78.10;;;;;;4976217;28;20478;-46
2023/05/15 04:48:52;;;;;;;14.00;12.70;;;18.90;78.30;;;;;;4972794;28;20461;-45
2023/05/15 04:51:20;;;;;;;12.03;10.43;;;18.80;77.90;;;;;;4973669;28;20466;-47
2023/05/15 04:53:49;;;;;;;12.20;11.00;;;18.80;78.10;;;;;;4972975;28;20442;-47
2023/05/15 04:56:17;;;;;;;13.23;11.87;;;18.80;78.00;;;;;;4979376;28;20513;-44
2023/05/15 04:58:47;;;;;;;12.57;11.37;;;18.80;78.10;;;;;;4970248;28;20941;-44
2023/05/15 05:01:18;;;;;;;11.93;10.83;;;18.80;78.10;;;;;;4988491;28;20886;-44
2023/05/15 05:03:47;;;;;;;14.27;12.87;;;18.80;78.20;;;;;;4971682;28;20450;-48
2023/05/15 05:06:15;;;;;;;11.17;10.17;;;18.80;78.00;;;;;;4987319;28;20578;-46
2023/05/15 05:08:44;;;;;;;12.07;11.07;;;18.80;78.10;;;;;;4972281;28;20806;-44
2023/05/15 05:11:12;;;;;;;13.07;11.00;;;18.80;78.30;;;;;;4974586;28;20555;-44
2023/05/15 05:13:41;;;;;;;11.40;10.30;;;18.80;78.20;;;;;;4970489;28;20549;-46
2023/05/15 05:16:11;;;;;;;13.10;11.90;;;18.80;78.10;;;;;;4972620;28;20633;-47
2023/05/15 05:18:39;;;;;;;12.13;10.93;;;18.80;77.80;;;;;;4971619;28;20514;-46
2023/05/15 05:21:10;;;;;;;11.27;10.27;;;18.80;78.10;;;;;;4976730;28;20888;-45
2023/05/15 05:23:39;;;;;;;13.73;12.37;;;18.80;78.00;;;;;;4950361;29;20519;-44
2023/05/15 05:26:07;;;;;;;12.90;11.60;;;18.80;77.60;;;;;;4956390;28;20456;-48
2023/05/15 05:28:35;;;;;;;13.93;12.10;;;18.80;77.70;;;;;;4968325;28;20573;-48
2023/05/15 05:31:38;;;;;;;14.27;12.87;;;18.80;77.60;;;;;;4974260;28;20945;-47
2023/05/15 05:35:11;;;;;;;14.37;12.87;;;18.80;77.50;;;;;;4987200;28;20458;-45
2023/05/15 05:41:49;;;;;;;13.07;11.77;;;18.70;77.40;;;;;;4938144;28;20851;-46
2023/05/15 05:44:43;;;;;;;13.97;12.53;;;18.70;77.30;;;;;;4964294;28;20455;-46
2023/05/15 05:47:12;;;;;;;14.80;13.30;;;18.70;77.40;;;;;;4974452;28;20471;-47
2023/05/15 05:49:40;;;;;;;12.40;11.27;;;18.70;77.50;;;;;;4976745;28;20498;-48
2023/05/15 05:52:10;;;;;;;12.33;11.03;;;18.70;77.60;;;;;;4971863;28;20570;-46
2023/05/15 05:54:41;;;;;;;12.77;11.57;;;18.70;77.80;;;;;;4975752;28;20452;-45
2023/05/15 05:57:10;;;;;;;14.13;12.70;;;18.70;77.80;;;;;;4977092;28;20471;-46
2023/05/15 05:59:38;;;;;;;12.43;11.33;;;18.70;77.70;;;;;;4970423;28;20447;-45
2023/05/15 06:02:07;;;;;;;14.37;12.87;;;18.70;77.90;;;;;;4987646;28;20435;-45
2023/05/15 06:04:36;;;;;;;12.97;11.73;;;18.70;77.60;;;;;;4976822;28;20439;-43
2023/05/15 06:07:04;;;;;;;14.80;13.20;;;18.70;77.60;;;;;;4970514;28;20521;-47
2023/05/15 06:09:34;;;;;;;12.40;11.30;;;18.70;77.50;;;;;;4985702;28;20534;-45
2023/05/15 06:12:03;;;;;;;17.30;12.83;;;18.70;77.80;;;;;;4973430;28;20505;-45
2023/05/15 06:14:32;;;;;;;15.90;14.20;;;18.70;77.40;;;;;;4971046;28;20502;-45
2023/05/15 06:17:00;;;;;;;16.60;14.90;;;18.70;77.40;;;;;;4986349;28;20470;-49
2023/05/15 06:19:29;;;;;;;13.03;11.83;;;18.70;77.20;;;;;;4988081;28;20513;-46
2023/05/15 06:21:57;;;;;;;16.37;14.23;;;18.70;77.40;;;;;;4968944;28;20470;-45
2023/05/15 06:24:26;;;;;;;14.27;12.90;;;18.70;77.40;;;;;;4976347;28;20479;-46
2023/05/15 06:26:56;;;;;;;17.03;15.33;;;18.70;77.40;;;;;;4973867;28;20860;-45
2023/05/15 06:29:24;;;;;;;14.83;13.40;;;18.70;77.40;;;;;;4989676;28;21039;-45
2023/05/15 06:31:53;;;;;;;16.60;15.00;;;18.70;77.30;;;;;;4973561;28;20930;-47
2023/05/15 06:34:21;;;;;;;14.53;13.13;;;18.70;77.30;;;;;;4971368;28;20558;-45
2023/05/15 06:36:50;;;;;;;14.53;12.53;;;18.70;77.30;;;;;;4971018;28;20473;-46
2023/05/15 06:39:18;;;;;;;14.33;12.90;;;18.70;77.40;;;;;;4973733;28;20455;-46
2023/05/15 06:41:46;;;;;;;13.77;12.27;;;18.70;77.40;;;;;;4968306;28;20507;-44
2023/05/15 06:44:17;;;;;;;13.47;12.07;;;18.70;77.40;;;;;;4974423;28;20439;-46
2023/05/15 06:46:46;;;;;;;13.73;12.47;;;18.70;77.50;;;;;;4972038;28;20490;-47
2023/05/15 06:49:15;;;;;;;17.10;13.00;;;18.60;77.40;;;;;;4991754;28;20454;-45
2023/05/15 06:51:44;;;;;;;14.93;13.53;;;18.70;77.30;;;;;;4974585;28;20467;-46
2023/05/15 06:54:12;;;;;;;14.80;13.30;;;18.70;77.50;;;;;;4984845;28;20467;-45
2023/05/15 06:56:40;;;;;;;16.23;13.53;;;18.70;76.80;;;;;;4970965;28;20983;-46
2023/05/15 06:59:16;;;;;;;14.97;13.47;;;18.70;77.10;;;;;;4976336;28;20451;-45
2023/05/15 07:01:46;;;;;;;12.80;11.50;;;18.70;76.80;;;;;;4970338;28;20436;-45
2023/05/15 07:04:14;;;;;;;17.10;14.20;;;18.70;77.00;;;;;;4988346;28;20447;-46
2023/05/15 07:06:43;;;;;;;15.63;13.97;;;18.70;76.80;;;;;;4969306;28;20486;-47
2023/05/15 07:09:13;;;;;;;14.87;13.37;;;18.70;77.10;;;;;;4968412;28;20530;-46
2023/05/15 07:11:41;;;;;;;13.63;12.23;;;18.70;76.80;;;;;;4974843;28;20814;-47
2023/05/15 07:14:10;;;;;;;14.70;12.93;;;18.70;77.30;;;;;;4954579;28;21086;-46
2023/05/15 07:16:40;;;;;;;14.03;12.63;;;18.70;76.90;;;;;;4970213;28;20480;-46
2023/05/15 07:19:09;;;;;;;14.63;13.23;;;18.70;76.80;;;;;;4970261;28;20451;-45
2023/05/15 07:21:38;;;;;;;13.73;12.40;;;18.70;76.80;;;;;;4965775;28;20470;-50
2023/05/15 07:24:07;;;;;;;14.17;12.87;;;18.70;76.90;;;;;;4981690;28;20443;-45
2023/05/15 07:26:36;;;;;;;12.53;11.33;;;18.70;77.10;;;;;;4972176;28;20553;-46
2023/05/15 07:29:24;;;;;;;12.87;11.70;;;18.70;77.00;;;;;;4970144;28;20467;-46
2023/05/15 07:31:54;;;;;;;13.43;12.23;;;18.70;77.10;;;;;;4970570;28;20522;-45
2023/05/15 07:34:23;;;;;;;12.70;11.50;;;18.70;76.80;;;;;;4986915;28;20474;-46
2023/05/15 07:36:51;;;;;;;13.63;12.37;;;18.70;76.80;;;;;;4968097;28;21132;-48
2023/05/15 07:39:20;;;;;;;11.93;10.87;;;18.70;78.00;;;;;;4988923;28;21119;-46
2023/05/15 07:41:48;;;;;;;13.43;12.10;;;18.70;76.80;;;;;;4966745;28;20541;-46
2023/05/15 07:44:37;;;;;;;12.60;11.33;;;18.70;76.60;;;;;;4969723;28;20534;-45
2023/05/15 07:47:54;;;;;;;13.47;12.10;;;18.70;76.50;;;;;;4972351;28;20466;-46
2023/05/15 07:51:05;;;;;;;13.47;12.17;;;18.70;76.50;;;;;;4965569;28;20478;-46
2023/05/15 07:57:41;;;;;;;11.80;10.70;;;18.70;76.30;;;;;;4960876;28;20874;-46
2023/05/15 08:00:26;;;;;;;13.13;11.73;;;18.70;76.30;;;;;;4971138;28;20446;-48
2023/05/15 08:03:19;;;;;;;13.40;12.07;;;18.70;76.30;;;;;;4951808;28;20490;-49
2023/05/15 08:05:56;;;;;;;12.80;11.60;;;18.70;76.10;;;;;;4967135;28;20751;-46
2023/05/15 08:08:25;;;;;;;13.80;12.37;;;18.70;76.20;;;;;;4971260;28;20482;-47
2023/05/15 08:10:53;;;;;;;16.03;13.80;;;18.70;76.10;;;;;;4970743;28;20475;-46
2023/05/15 08:13:21;;;;;;;13.97;12.67;;;18.70;75.20;;;;;;4968034;28;20517;-45
2023/05/15 08:15:50;;;;;;;16.87;15.17;;;18.70;76.00;;;;;;4967930;28;20423;-45
2023/05/15 08:18:23;;;;;;;14.90;13.40;;;18.70;75.30;;;;;;4958673;28;20563;-45
2023/05/15 08:20:52;;;;;;;14.47;12.60;;;18.80;75.90;;;;;;4976270;28;20435;-46
2023/05/15 08:23:21;;;;;;;17.13;14.70;;;18.70;75.80;;;;;;4971578;28;21012;-47
2023/05/15 08:25:50;;;;;;;16.00;14.30;;;18.70;75.50;;;;;;4969373;28;20482;-46
2023/05/15 08:28:18;;;;;;;15.13;13.57;;;18.70;75.50;;;;;;4974893;28;20474;-45
2023/05/15 08:30:47;;;;;;;13.50;12.13;;;18.70;75.90;;;;;;4973484;28;20450;-47
2023/05/15 08:33:15;;;;;;;14.27;12.90;;;18.70;75.80;;;;;;4974152;28;20479;-48
2023/05/15 08:35:44;;;;;;;13.13;11.37;;;18.70;76.00;;;;;;4970701;28;20520;-45
2023/05/15 08:38:13;;;;;;;15.27;13.77;;;18.70;76.10;;;;;;4971687;28;20561;-46
2023/05/15 08:40:47;;;;;;;12.73;11.60;;;18.70;76.00;;;;;;4973876;28;20474;-46
2023/05/15 08:43:17;;;;;;;13.90;12.53;;;18.70;76.10;;;;;;4970897;28;20823;-47
2023/05/15 08:45:46;;;;;;;12.53;11.33;;;18.80;76.30;;;;;;4970488;28;20434;-46
2023/05/15 08:48:19;;;;;;;14.07;12.70;;;18.80;76.30;;;;;;4973066;28;21113;-47
2023/05/15 08:50:48;;;;;;;11.90;10.80;;;18.80;75.80;;;;;;4972841;28;20423;-45
2023/05/15 08:53:17;;;;;;;13.57;11.63;;;18.80;76.20;;;;;;4967658;28;20894;-45
2023/05/15 08:55:48;;;;;;;13.93;12.53;;;18.80;76.40;;;;;;4956322;28;20484;-45
2023/05/15 08:58:20;;;;;;;13.67;12.40;;;18.80;75.70;;;;;;4974010;28;20547;-46
2023/05/15 09:00:50;;;;;;;13.07;11.77;;;18.80;75.80;;;;;;4974465;28;20944;-47
2023/05/15 09:03:21;;;;;;;14.00;12.70;;;18.80;75.80;;;;;;4972598;28;20526;-45
2023/05/15 09:05:52;;;;;;;14.83;13.33;;;18.80;75.40;;;;;;4971349;28;20443;-45
2023/05/15 09:08:22;;;;;;;18.73;16.10;;;18.90;75.10;;;;;;4987493;28;20483;-46
2023/05/15 09:10:53;;;;;;;19.47;17.57;;;19.00;73.70;;;;;;4974188;28;20451;-45
2023/05/15 09:13:21;;;;;;;19.83;17.40;;;19.00;71.40;;;;;;4971203;28;20855;-48
2023/05/15 09:15:51;;;;;;;15.70;14.00;;;19.00;72.40;;;;;;4976332;28;20779;-46
2023/05/15 09:18:20;;;;;;;18.63;16.33;;;18.90;73.10;;;;;;4975468;28;21013;-47
2023/05/15 09:20:50;;;;;;;16.13;14.70;;;18.90;73.40;;;;;;4970130;28;20498;-49
2023/05/15 09:23:27;;;;;;;15.80;14.00;;;18.90;73.50;;;;;;4975330;28;20475;-46
2023/05/15 09:25:58;;;;;;;16.83;15.00;;;18.90;73.50;;;;;;4976969;28;20447;-46
2023/05/15 09:28:28;;;;;;;15.77;14.13;;;18.80;73.80;;;;;;4971383;28;20489;-46
2023/05/15 09:30:59;;;;;;;16.03;14.20;;;18.80;74.00;;;;;;4973388;28;20521;-45
2023/05/15 09:33:30;;;;;;;14.70;13.20;;;18.80;74.40;;;;;;4970801;28;20972;-46
2023/05/15 09:35:58;;;;;;;13.50;12.20;;;18.80;74.50;;;;;;4972747;28;20475;-45
2023/05/15 09:38:27;;;;;;;13.77;12.33;;;18.80;74.20;;;;;;4975208;28;21019;-45
2023/05/15 09:41:05;;;;;;;13.93;12.50;;;18.80;74.10;;;;;;4971773;28;20478;-46
2023/05/15 09:43:38;;;;;;;13.63;12.23;;;18.80;74.20;;;;;;4989386;28;20502;-46
2023/05/15 09:46:10;;;;;;;13.23;11.90;;;18.80;74.60;;;;;;4988025;28;20478;-46
2023/05/15 09:48:39;;;;;;;13.30;12.00;;;18.80;74.50;;;;;;4969864;28;20489;-48
2023/05/15 09:51:15;;;;;;;14.97;13.47;;;18.80;74.80;;;;;;4973327;28;20672;-46
2023/05/15 09:53:49;;;;;;;13.00;11.73;;;18.80;74.50;;;;;;4970216;28;20471;-45
2023/05/15 09:56:19;;;;;;;14.00;11.60;;;18.80;74.40;;;;;;4987148;28;20474;-51
2023/05/15 09:58:54;;;;;;;14.10;12.80;;;18.80;74.60;;;;;;4967937;28;20486;-46
2023/05/15 10:01:24;;;;;;;12.43;11.23;;;18.80;74.00;;;;;;4971232;28;20442;-46
2023/05/15 10:03:59;;;;;;;12.83;11.60;;;18.80;74.50;;;;;;4969248;28;20439;-47
2023/05/15 10:06:35;;;;;;;14.27;12.97;;;18.80;74.40;;;;;;4985740;28;20475;-46
2023/05/15 10:09:04;;;;;;;14.03;12.73;;;18.80;74.30;;;;;;4969567;28;20470;-46
2023/05/15 10:11:35;;;;;;;13.27;12.07;;;18.80;74.40;;;;;;4976069;28;20988;-47
2023/05/15 10:14:06;;;;;;;14.80;12.70;;;18.80;74.20;;;;;;4976423;28;20451;-48
2023/05/15 10:16:36;;;;;;;12.40;11.30;;;18.80;73.90;;;;;;4968441;28;20481;-47
2023/05/15 10:19:06;;;;;;;12.97;11.87;;;18.80;74.20;;;;;;4969793;28;20529;-48
2023/05/15 10:21:37;;;;;;;12.83;11.63;;;18.80;74.30;;;;;;4983424;28;20486;-48
2023/05/15 10:24:06;;;;;;;14.33;12.93;;;18.80;74.20;;;;;;4965998;28;21019;-46
2023/05/15 10:26:38;;;;;;;12.90;11.67;;;18.90;73.60;;;;;;4969384;28;20863;-48
2023/05/15 10:29:11;;;;;;;12.20;11.10;;;18.80;74.20;;;;;;4969458;28;20530;-48
2023/05/15 10:31:40;;;;;;;12.60;11.10;;;18.90;74.30;;;;;;4972968;28;20483;-47
2023/05/15 10:34:09;;;;;;;12.97;11.87;;;18.90;73.90;;;;;;4981956;28;20526;-45
2023/05/15 10:36:38;;;;;;;12.60;11.40;;;18.90;73.70;;;;;;4969974;28;20510;-45
2023/05/15 10:39:07;;;;;;;12.57;11.37;;;18.80;73.70;;;;;;4969975;28;20525;-48
2023/05/15 10:41:39;;;;;;;13.57;12.27;;;18.90;74.30;;;;;;4981755;28;20972;-46
2023/05/15 10:44:08;;;;;;;13.67;12.37;;;18.80;73.80;;;;;;4963737;28;20517;-45
2023/05/15 10:46:40;;;;;;;12.20;11.07;;;18.80;73.20;;;;;;4973036;28;20869;-45
2023/05/15 10:49:08;;;;;;;13.30;11.83;;;18.90;73.30;;;;;;4975688;28;20463;-46
2023/05/15 10:51:39;;;;;;;11.60;10.50;;;18.80;73.40;;;;;;4968025;28;20490;-46
2023/05/15 10:54:09;;;;;;;10.17;9.17;;;18.80;73.60;;;;;;4971326;28;20446;-46
2023/05/15 10:56:41;;;;;;;14.23;12.17;;;18.90;74.30;;;;;;4969540;28;20478;-46
2023/05/15 10:59:11;;;;;;;11.73;10.57;;;18.90;73.30;;;;;;4972522;28;20512;-46
2023/05/15 11:01:41;;;;;;;13.00;11.87;;;18.90;73.60;;;;;;4970538;28;20473;-46
2023/05/15 11:04:11;;;;;;;12.70;11.60;;;18.90;73.60;;;;;;4969798;28;20454;-47
2023/05/15 11:06:42;;;;;;;13.30;12.03;;;18.90;73.50;;;;;;4973054;28;20794;-46
2023/05/15 11:09:37;;;;;;;12.10;11.00;;;18.90;73.10;;;;;;4970455;28;20447;-46
2023/05/15 11:12:09;;;;;;;11.70;10.70;;;18.90;72.90;;;;;;4966333;28;20455;-48
2023/05/15 11:14:40;;;;;;;11.80;10.80;;;18.90;73.30;;;;;;4969608;28;20991;-45
2023/05/15 11:17:10;;;;;;;13.00;11.70;;;18.90;73.60;;;;;;4968653;28;20486;-47
2023/05/15 11:19:56;;;;;;;12.67;11.37;;;18.90;73.20;;;;;;4972582;28;20452;-45
2023/05/15 11:22:31;;;;;;;12.60;11.50;;;18.90;73.10;;;;;;4982989;28;20870;-45
2023/05/15 11:25:01;;;;;;;12.70;11.50;;;18.90;73.20;;;;;;4970273;28;20430;-45
2023/05/15 11:27:37;;;;;;;12.70;11.03;;;18.90;73.20;;;;;;4968785;28;21044;-46
2023/05/15 11:30:12;;;;;;;12.63;11.50;;;18.90;73.40;;;;;;4964940;28;20455;-46
2023/05/15 11:32:48;;;;;;;11.00;10.03;;;18.90;73.40;;;;;;4967285;28;20469;-48
2023/05/15 11:35:21;;;;;;;10.53;9.60;;;18.90;73.30;;;;;;4970666;28;20545;-46
2023/05/15 11:37:52;;;;;;;12.10;11.10;;;18.90;73.40;;;;;;4969281;28;21102;-46
2023/05/15 11:40:23;;;;;;;11.83;10.77;;;18.90;73.00;;;;;;4974015;28;20483;-46
2023/05/15 11:43:05;;;;;;;12.47;11.27;;;18.90;73.10;;;;;;4968357;28;20481;-46
2023/05/15 11:45:36;;;;;;;12.17;10.67;;;18.90;71.90;;;;;;4988354;28;20505;-47
2023/05/15 11:48:08;;;;;;;12.70;11.50;;;18.90;71.70;;;;;;4970255;28;21000;-46
2023/05/15 11:50:37;;;;;;;10.90;9.80;;;18.90;72.20;;;;;;4969444;28;20466;-46
2023/05/15 11:53:07;;;;;;;11.20;10.20;;;18.90;72.40;;;;;;4969729;28;20467;-45
2023/05/15 11:55:37;;;;;;;11.90;10.90;;;18.90;71.90;;;;;;4979413;28;21000;-46
2023/05/15 11:58:12;;;;;;;14.30;11.07;;;18.90;71.80;;;;;;4962208;28;20483;-47
2023/05/15 12:00:41;;;;;;;10.80;9.80;;;18.90;71.90;;;;;;4987713;28;20454;-48
2023/05/15 12:03:15;;;;;;;10.43;9.50;;;18.90;72.40;;;;;;4967247;28;20565;-49
2023/05/15 12:05:44;;;;;;;10.93;9.93;;;19.00;72.30;;;;;;4967455;28;20455;-47
2023/05/15 12:08:30;;;;;;;10.63;9.70;;;18.90;72.00;;;;;;4970620;28;20980;-45
2023/05/15 12:11:00;;;;;;;11.57;10.53;;;19.00;72.70;;;;;;4969467;28;21064;-45
2023/05/15 12:13:30;;;;;;;11.53;10.33;;;19.00;71.40;;;;;;4971002;28;20479;-48
2023/05/15 12:15:59;;;;;;;9.57;8.70;;;19.00;71.30;;;;;;4971921;28;20456;-46
2023/05/15 12:18:28;;;;;;;10.97;9.97;;;19.00;71.40;;;;;;4984323;28;20525;-45
2023/05/15 12:20:58;;;;;;;9.93;9.13;;;19.00;71.60;;;;;;4969659;28;20799;-46
2023/05/15 12:23:27;;;;;;;9.97;9.07;;;19.00;71.40;;;;;;4967475;28;20476;-50
2023/05/15 12:25:59;;;;;;;10.03;9.00;;;19.00;71.40;;;;;;4972327;28;20490;-47
2023/05/15 12:28:32;;;;;;;10.10;9.23;;;19.00;71.50;;;;;;4973566;28;20533;-46
2023/05/15 12:31:00;;;;;;;11.30;10.30;;;19.00;71.40;;;;;;4970680;28;20504;-47
2023/05/15 12:33:29;;;;;;;10.63;9.70;;;19.00;70.70;;;;;;4967844;28;20479;-47
2023/05/15 12:35:59;;;;;;;11.20;10.20;;;19.00;70.80;;;;;;4975761;28;20555;-45
2023/05/15 12:38:32;;;;;;;10.43;9.47;;;19.00;70.70;;;;;;4979069;28;20919;-46
2023/05/15 12:41:01;;;;;;;10.30;9.30;;;19.00;70.70;;;;;;4968324;28;20537;-47
2023/05/15 12:43:32;;;;;;;9.60;8.80;;;19.00;70.00;;;;;;4973546;28;20463;-46
2023/05/15 12:46:00;;;;;;;9.70;8.70;;;19.00;70.40;;;;;;4969768;28;20518;-48
2023/05/15 12:48:36;;;;;;;10.80;9.80;;;19.00;70.50;;;;;;4979576;28;20470;-46
2023/05/15 12:51:07;;;;;;;10.53;9.63;;;19.10;70.20;;;;;;4970488;28;20486;-47
2023/05/15 12:53:38;;;;;;;8.87;7.97;;;19.10;70.60;;;;;;4964426;28;20569;-47
2023/05/15 12:56:08;;;;;;;11.13;10.03;;;19.10;70.40;;;;;;4968828;28;20455;-46
2023/05/15 12:58:38;;;;;;;10.53;9.63;;;19.10;70.50;;;;;;4970378;28;20483;-45
2023/05/15 13:01:07;;;;;;;10.93;10.03;;;19.10;70.80;;;;;;4969255;28;20474;-45